Terminal Aerodrome Forecast
Issued by NWS Milwaukee/Sullivan, WI

Home | Current Version | Previous Version | Text Only | Print | Product List | Glossary On
Versions: 1 2 3 4 5 6 7 8 9 10 11 12 13 14 15 16 17 18 19 20 21 22 23 24 25 26 27 28 29 30 31 32 33 34 35 36 37 38 39 40
000
FTUS43 KMKX 292320
TAFMKE
TAF
KMKE 292320Z 3000/3106 14004KT P6SM FEW025 BKN200
     FM300700 VRB03KT 5SM BR SCT100
     FM301300 26005KT P6SM BKN150
     FM302100 15008KT P6SM VCTS SCT040CB BKN070
     FM310200 25005KT P6SM VCTS BKN035CB=

USA.gov is the U.S. government's official web portal to all federal, state and local government web resources and services.